createdAt,value
2023-09-26T00:00:35.035Z,4.93
2023-09-26T00:03:37.803Z,4.10
2023-09-26T00:06:40.249Z,4.30
2023-09-26T00:09:42.936Z,4.82
2023-09-26T00:12:45.604Z,4.20
2023-09-26T00:15:48.490Z,4.28
2023-09-26T00:18:51.003Z,5.28
2023-09-26T00:21:53.839Z,4.67
2023-09-26T00:24:56.824Z,4.30
2023-09-26T00:27:59.736Z,4.85
2023-09-26T00:31:06.336Z,4.50
2023-09-26T00:34:09.294Z,4.40
2023-09-26T00:37:11.905Z,4.40
2023-09-26T00:40:20.258Z,4.75
2023-09-26T00:43:23.753Z,4.37
2023-09-26T00:46:26.732Z,4.65
2023-09-26T00:49:32.991Z,4.30
2023-09-26T00:52:37.572Z,5.13
2023-09-26T00:55:40.114Z,5.00
2023-09-26T00:58:42.994Z,5.00
2023-09-26T01:01:46.900Z,4.40
2023-09-26T01:04:50.081Z,4.87
2023-09-26T01:07:52.879Z,4.67
2023-09-26T01:10:55.633Z,4.55
2023-09-26T01:13:58.048Z,4.65
2023-09-26T01:17:00.873Z,4.90
2023-09-26T01:20:13.518Z,4.70
2023-09-26T01:23:17.446Z,5.03
2023-09-26T01:26:19.869Z,4.70
2023-09-26T01:29:22.536Z,4.62
2023-09-26T01:32:26.798Z,4.90
2023-09-26T01:35:29.712Z,5.05
2023-09-26T01:38:32.114Z,4.60
2023-09-26T01:41:34.897Z,4.80
2023-09-26T01:44:37.484Z,5.10
2023-09-26T01:47:50.583Z,5.20
2023-09-26T01:50:53.045Z,4.65
2023-09-26T01:53:55.812Z,5.13
2023-09-26T01:56:58.253Z,4.72
2023-09-26T02:00:06.835Z,5.37
2023-09-26T02:03:14.235Z,5.40
2023-09-26T02:06:17.935Z,5.35
2023-09-26T02:09:20.505Z,5.87
2023-09-26T02:12:23.618Z,5.30
2023-09-26T02:15:26.409Z,5.95
2023-09-26T02:18:29.721Z,5.40
2023-09-26T02:21:32.215Z,4.97
2023-09-26T02:24:35.070Z,5.47
2023-09-26T02:27:38.361Z,5.43
2023-09-26T02:30:42.501Z,5.50
2023-09-26T02:33:44.993Z,5.28
2023-09-26T02:36:48.735Z,4.68
2023-09-26T02:39:51.833Z,5.70
2023-09-26T02:42:54.574Z,5.87
2023-09-26T02:45:57.169Z,5.10
2023-09-26T02:49:01.541Z,5.03
2023-09-26T02:52:04.319Z,4.90
2023-09-26T02:55:08.849Z,4.77
2023-09-26T02:58:11.556Z,5.80
2023-09-26T03:01:18.183Z,4.45
2023-09-26T03:04:20.944Z,5.05
2023-09-26T03:07:23.857Z,4.97
2023-09-26T03:10:26.451Z,5.10
2023-09-26T03:13:34.048Z,5.68
2023-09-26T03:16:36.867Z,5.97
2023-09-26T03:19:39.831Z,6.20
2023-09-26T03:22:42.943Z,5.72
2023-09-26T03:25:45.603Z,6.57
2023-09-26T03:28:48.172Z,5.90
2023-09-26T03:31:51.233Z,5.40
2023-09-26T03:34:53.746Z,5.90
2023-09-26T03:37:56.626Z,5.37
2023-09-26T03:41:04.685Z,6.47
2023-09-26T03:44:08.097Z,5.20
2023-09-26T03:47:10.818Z,5.93
2023-09-26T03:50:13.738Z,5.90
2023-09-26T03:53:16.286Z,5.82
2023-09-26T03:56:19.069Z,5.67
2023-09-26T03:59:21.517Z,5.60
2023-09-26T04:02:24.379Z,6.30
2023-09-26T04:05:27.179Z,6.32
2023-09-26T04:08:29.712Z,6.78
2023-09-26T04:11:32.530Z,5.77
2023-09-26T04:14:35.050Z,7.57
2023-09-26T04:17:39.155Z,7.55
2023-09-26T04:20:41.774Z,6.28
2023-09-26T04:23:44.480Z,6.50
2023-09-26T04:26:47.899Z,7.60
2023-09-26T04:29:53.004Z,6.93
2023-09-26T04:32:55.612Z,6.95
2023-09-26T04:35:58.600Z,7.57
2023-09-26T04:39:01.181Z,7.00
2023-09-26T04:42:05.610Z,6.83
2023-09-26T04:45:09.026Z,6.37
2023-09-26T04:48:11.868Z,7.07
2023-09-26T04:51:15.916Z,7.47
2023-09-26T04:54:18.823Z,6.43
2023-09-26T04:57:21.306Z,6.70
2023-09-26T05:00:24.054Z,7.25
2023-09-26T05:03:26.647Z,7.47
2023-09-26T05:06:30.650Z,7.35
2023-09-26T05:09:33.210Z,7.45
2023-09-26T05:12:41.457Z,6.53
2023-09-26T05:15:44.016Z,6.70
2023-09-26T05:18:47.590Z,7.20
2023-09-26T05:21:50.141Z,7.62
2023-09-26T05:24:52.998Z,8.13
2023-09-26T05:27:55.631Z,7.40
2023-09-26T05:30:58.768Z,7.30
2023-09-26T05:34:01.425Z,7.32
2023-09-26T05:37:04.241Z,7.65
2023-09-26T05:40:08.343Z,6.95
2023-09-26T05:43:11.249Z,7.53
2023-09-26T05:46:13.823Z,6.68
2023-09-26T05:49:16.724Z,6.85
2023-09-26T05:52:21.580Z,6.95
2023-09-26T05:55:24.567Z,7.12
2023-09-26T05:58:27.360Z,6.93
2023-09-26T06:01:30.242Z,7.28
2023-09-26T06:04:33.337Z,5.72
2023-09-26T06:07:36.012Z,6.57
2023-09-26T06:10:38.982Z,6.70
2023-09-26T06:13:43.939Z,6.23
2023-09-26T06:16:46.753Z,5.97
2023-09-26T06:19:49.268Z,7.18
2023-09-26T06:22:52.060Z,6.72
2023-09-26T06:25:59.130Z,7.03
2023-09-26T06:29:02.237Z,6.27
2023-09-26T06:32:04.846Z,7.07
2023-09-26T06:35:08.114Z,6.55
2023-09-26T06:38:10.582Z,6.35
2023-09-26T06:41:14.067Z,7.78
2023-09-26T06:44:16.665Z,6.67
2023-09-26T06:47:19.439Z,6.47
2023-09-26T06:50:22.707Z,6.72
2023-09-26T06:53:25.588Z,6.78
2023-09-26T06:56:28.785Z,6.75
2023-09-26T06:59:31.902Z,6.47
2023-09-26T07:02:35.039Z,6.90
2023-09-26T07:05:37.951Z,6.47
2023-09-26T07:08:42.328Z,6.80
2023-09-26T07:11:45.124Z,6.60
2023-09-26T07:14:49.050Z,6.93
2023-09-26T07:17:51.812Z,7.45
2023-09-26T07:20:54.742Z,7.05
2023-09-26T07:23:58.198Z,6.95
2023-09-26T07:27:00.962Z,7.12
2023-09-26T07:30:05.273Z,7.03
2023-09-26T07:33:07.741Z,7.75
2023-09-26T07:36:11.350Z,7.70
2023-09-26T07:39:15.957Z,7.25
2023-09-26T07:42:22.787Z,6.70
2023-09-26T07:45:25.270Z,7.13
2023-09-26T07:48:28.026Z,7.68
2023-09-26T07:51:30.487Z,7.05
2023-09-26T07:54:33.890Z,7.90
2023-09-26T07:57:36.313Z,7.57
2023-09-26T08:00:39.154Z,7.57
2023-09-26T08:03:44.916Z,7.43
2023-09-26T08:06:47.565Z,8.57
2023-09-26T08:09:50.408Z,7.50
2023-09-26T08:12:52.904Z,7.15
2023-09-26T08:15:55.748Z,7.37
2023-09-26T08:18:58.654Z,7.85
2023-09-26T08:22:02.020Z,8.25
2023-09-26T08:25:05.256Z,8.68
2023-09-26T08:28:08.305Z,7.03
2023-09-26T08:31:16.312Z,7.67
2023-09-26T08:34:19.378Z,7.00
2023-09-26T08:37:21.927Z,7.57
2023-09-26T08:40:28.551Z,7.28
2023-09-26T08:43:31.290Z,7.32
2023-09-26T08:46:35.428Z,7.03
2023-09-26T08:49:42.526Z,7.20
2023-09-26T08:52:45.431Z,7.60
2023-09-26T08:55:50.326Z,7.85
2023-09-26T08:58:55.974Z,8.68
2023-09-26T09:01:59.039Z,6.80
2023-09-26T09:05:02.098Z,7.55
2023-09-26T09:08:04.948Z,7.20
2023-09-26T09:11:07.932Z,7.25
2023-09-26T09:14:10.581Z,6.85
2023-09-26T09:17:13.446Z,7.27
2023-09-26T09:20:29.500Z,7.78
2023-09-26T09:23:47.344Z,7.75
2023-09-26T09:26:52.681Z,7.57
2023-09-26T09:30:20.576Z,6.90
2023-09-26T09:33:23.703Z,7.20
2023-09-26T09:36:27.378Z,6.97
2023-09-26T09:39:31.211Z,6.95
2023-09-26T09:42:34.143Z,7.60
2023-09-26T09:45:38.678Z,7.70
2023-09-26T09:48:44.162Z,6.73
2023-09-26T09:51:48.650Z,6.90
2023-09-26T09:54:56.449Z,7.07
2023-09-26T09:58:03.759Z,7.00
2023-09-26T10:01:08.129Z,6.93
2023-09-26T10:04:11.525Z,5.90
2023-09-26T10:07:14.494Z,6.47
2023-09-26T10:10:19.302Z,6.60
2023-09-26T10:13:35.847Z,6.45
2023-09-26T10:16:39.604Z,6.78
2023-09-26T10:23:11.062Z,6.47
2023-09-26T10:26:13.535Z,6.35
2023-09-26T10:29:16.213Z,6.20
2023-09-26T10:32:44.419Z,7.62
2023-09-26T10:35:47.313Z,6.43
2023-09-26T10:39:06.893Z,6.35
2023-09-26T10:45:33.249Z,6.70
2023-09-26T10:48:36.201Z,6.65
2023-09-26T10:51:39.081Z,6.57
2023-09-26T10:54:42.647Z,7.10
2023-09-26T10:57:46.227Z,7.22
2023-09-26T11:04:15.801Z,6.97
2023-09-26T11:07:19.499Z,5.97
2023-09-26T11:10:22.767Z,6.40
2023-09-26T11:13:26.532Z,6.03
2023-09-26T11:16:29.056Z,5.80
2023-09-26T11:19:31.956Z,5.37
2023-09-26T11:22:48.085Z,6.20
2023-09-26T11:25:54.273Z,5.68
2023-09-26T11:28:56.840Z,6.30
2023-09-26T11:31:59.669Z,6.07
2023-09-26T11:35:02.415Z,5.95
2023-09-26T11:38:06.084Z,5.23
2023-09-26T11:41:11.235Z,6.35
2023-09-26T11:44:16.220Z,5.53
2023-09-26T11:47:18.659Z,7.60
2023-09-26T11:50:22.205Z,6.60
2023-09-26T11:53:27.075Z,6.13
2023-09-26T11:56:30.196Z,5.78
2023-09-26T11:59:33.279Z,6.00
2023-09-26T12:02:36.111Z,5.53
2023-09-26T12:05:39.144Z,5.50
2023-09-26T12:08:41.631Z,6.17
2023-09-26T12:11:45.597Z,5.97
2023-09-26T12:14:49.871Z,5.28
2023-09-26T12:17:55.050Z,6.05
2023-09-26T12:20:58.351Z,5.93
2023-09-26T12:24:01.278Z,6.17
2023-09-26T12:27:05.225Z,6.75
2023-09-26T12:30:08.509Z,6.20
2023-09-26T12:33:11.312Z,6.00
2023-09-26T12:36:14.199Z,6.15
2023-09-26T12:39:16.628Z,4.97
2023-09-26T12:42:19.393Z,5.78
2023-09-26T12:45:21.968Z,4.93
2023-09-26T12:48:25.391Z,5.55
2023-09-26T12:51:29.696Z,5.78
2023-09-26T12:54:34.682Z,5.93
2023-09-26T12:57:38.353Z,6.03
2023-09-26T13:00:41.915Z,5.62
2023-09-26T13:03:44.460Z,4.80
2023-09-26T13:06:47.279Z,5.25
2023-09-26T13:09:51.062Z,5.77
2023-09-26T13:12:53.824Z,5.15
2023-09-26T13:15:57.047Z,4.53
2023-09-26T13:19:00.709Z,4.90
2023-09-26T13:22:03.236Z,4.25
2023-09-26T13:25:09.494Z,4.93
2023-09-26T13:28:12.616Z,4.70
2023-09-26T13:31:15.516Z,5.65
2023-09-26T13:34:18.129Z,5.03
2023-09-26T13:37:20.807Z,4.05
2023-09-26T13:40:23.532Z,4.90
2023-09-26T13:43:26.321Z,4.32
2023-09-26T13:46:29.057Z,5.22
2023-09-26T13:49:32.028Z,5.03
2023-09-26T13:52:34.723Z,4.15
2023-09-26T13:55:37.532Z,5.10
2023-09-26T13:58:40.072Z,5.47
2023-09-26T14:01:42.960Z,7.68
2023-09-26T14:07:51.783Z,4.78
2023-09-26T14:10:54.642Z,4.53
2023-09-26T14:13:57.085Z,5.47
2023-09-26T14:16:59.907Z,4.82
2023-09-26T14:20:02.508Z,4.25
2023-09-26T14:23:06.608Z,4.55
2023-09-26T14:26:10.318Z,4.53
2023-09-26T14:29:13.224Z,4.30
2023-09-26T14:32:15.777Z,4.35
2023-09-26T14:35:18.874Z,4.50
2023-09-26T14:38:21.321Z,4.30
2023-09-26T14:41:24.050Z,4.80
2023-09-26T14:44:26.629Z,4.55
2023-09-26T14:47:29.669Z,4.57
2023-09-26T14:50:32.098Z,5.12
2023-09-26T14:53:37.622Z,4.80
2023-09-26T14:56:42.169Z,5.10
2023-09-26T14:59:44.878Z,4.57
2023-09-26T15:02:48.640Z,5.40
2023-09-26T15:05:51.830Z,4.62
2023-09-26T15:08:54.371Z,4.90
2023-09-26T15:11:57.357Z,5.77
2023-09-26T15:14:59.825Z,5.57
2023-09-26T15:18:02.739Z,5.12
2023-09-26T15:21:05.238Z,5.10
2023-09-26T15:24:08.189Z,4.97
2023-09-26T15:27:10.581Z,5.10
2023-09-26T15:30:13.637Z,5.43
2023-09-26T15:33:16.229Z,5.22
2023-09-26T15:36:19.056Z,5.22
2023-09-26T15:39:22.464Z,4.45
2023-09-26T15:42:25.315Z,5.40
2023-09-26T15:45:27.932Z,4.85
2023-09-26T15:48:30.712Z,5.12
2023-09-26T15:51:33.572Z,5.45
2023-09-26T15:54:36.325Z,4.72
2023-09-26T15:57:39.256Z,6.53
2023-09-26T16:00:41.963Z,5.30
2023-09-26T16:03:46.162Z,6.75
2023-09-26T16:06:48.638Z,5.18
2023-09-26T16:09:51.509Z,5.03
2023-09-26T16:13:06.861Z,5.07
2023-09-26T16:16:13.437Z,5.55
2023-09-26T16:19:17.109Z,5.65
2023-09-26T16:22:21.292Z,5.22
2023-09-26T16:25:23.787Z,5.22
2023-09-26T16:28:26.583Z,5.57
2023-09-26T16:31:29.356Z,5.40
2023-09-26T16:34:33.095Z,5.07
2023-09-26T16:37:36.890Z,6.00
2023-09-26T16:40:45.448Z,6.60
2023-09-26T16:43:48.014Z,6.20
2023-09-26T16:46:50.834Z,5.47
2023-09-26T16:49:53.584Z,6.65
2023-09-26T16:52:58.768Z,6.35
2023-09-26T16:56:01.417Z,6.15
2023-09-26T16:59:06.685Z,6.10
2023-09-26T17:02:09.599Z,6.53
2023-09-26T17:05:13.127Z,6.43
2023-09-26T17:08:17.315Z,6.28
2023-09-26T17:11:22.070Z,6.78
2023-09-26T17:14:25.053Z,5.90
2023-09-26T17:17:28.158Z,6.87
2023-09-26T17:20:30.676Z,8.80
2023-09-26T17:23:33.345Z,8.35
2023-09-26T17:26:35.770Z,9.75
2023-09-26T17:29:38.432Z,9.37
2023-09-26T17:32:43.087Z,9.05
2023-09-26T17:35:47.213Z,7.97
2023-09-26T17:38:50.715Z,8.27
2023-09-26T17:41:53.395Z,9.40
2023-09-26T17:44:55.794Z,8.83
2023-09-26T17:47:58.704Z,11.05
2023-09-26T17:51:07.407Z,9.10
2023-09-26T17:54:10.223Z,8.02
2023-09-26T17:57:12.704Z,8.27
2023-09-26T18:00:16.439Z,7.87
2023-09-26T18:03:20.170Z,8.25
2023-09-26T18:06:23.050Z,7.95
2023-09-26T18:09:25.778Z,6.22
2023-09-26T18:12:28.319Z,9.02
2023-09-26T18:15:32.418Z,8.30
2023-09-26T18:18:35.046Z,6.60
2023-09-26T18:21:37.994Z,11.45
2023-09-26T18:24:40.398Z,6.57
2023-09-26T18:27:43.176Z,6.93
2023-09-26T18:30:45.714Z,6.63
2023-09-26T18:33:48.409Z,6.30
2023-09-26T18:36:50.860Z,6.95
2023-09-26T18:39:53.636Z,7.20
2023-09-26T18:42:56.108Z,5.87
2023-09-26T18:45:59.057Z,6.80
2023-09-26T18:49:01.969Z,6.62
2023-09-26T18:52:04.997Z,6.72
2023-09-26T18:55:07.907Z,6.47
2023-09-26T18:58:11.022Z,6.53
2023-09-26T19:01:13.601Z,5.97
2023-09-26T19:04:16.938Z,6.07
2023-09-26T19:07:19.468Z,6.70
2023-09-26T19:10:22.444Z,6.70
2023-09-26T19:13:24.920Z,7.62
2023-09-26T19:16:27.722Z,6.90
2023-09-26T19:19:30.244Z,6.70
2023-09-26T19:22:32.963Z,6.35
2023-09-26T19:25:37.597Z,6.72
2023-09-26T19:28:40.350Z,6.72
2023-09-26T19:31:42.918Z,6.27
2023-09-26T19:34:45.766Z,6.10
2023-09-26T19:37:48.194Z,5.97
2023-09-26T19:40:50.895Z,7.07
2023-09-26T19:43:53.358Z,6.05
2023-09-26T19:46:56.948Z,7.17
2023-09-26T19:49:59.473Z,6.22
2023-09-26T19:53:02.183Z,6.62
2023-09-26T19:56:04.960Z,6.87
2023-09-26T19:59:07.730Z,6.12
2023-09-26T20:02:11.513Z,6.80
2023-09-26T20:05:14.669Z,6.50
2023-09-26T20:08:17.449Z,6.45
2023-09-26T20:11:20.245Z,6.53
2023-09-26T20:14:22.713Z,7.03
2023-09-26T20:17:25.782Z,6.83
2023-09-26T20:20:28.572Z,5.90
2023-09-26T20:23:31.366Z,6.10
2023-09-26T20:26:33.767Z,6.97
2023-09-26T20:29:36.575Z,6.75
2023-09-26T20:32:39.146Z,7.63
2023-09-26T20:35:41.919Z,6.30
2023-09-26T20:38:44.381Z,6.32
2023-09-26T20:41:47.095Z,6.60
2023-09-26T20:44:49.575Z,6.57
2023-09-26T20:47:52.618Z,6.23
2023-09-26T20:50:55.198Z,6.30
2023-09-26T20:53:57.894Z,6.82
2023-09-26T20:57:00.328Z,7.45
2023-09-26T21:00:05.616Z,6.93
2023-09-26T21:03:08.268Z,6.50
2023-09-26T21:06:13.027Z,6.15
2023-09-26T21:09:15.475Z,6.40
2023-09-26T21:12:18.135Z,6.90
2023-09-26T21:15:23.566Z,6.70
2023-09-26T21:18:26.452Z,5.93
2023-09-26T21:21:29.467Z,5.70
2023-09-26T21:24:32.352Z,5.80
2023-09-26T21:27:34.800Z,5.85
2023-09-26T21:30:38.078Z,6.32
2023-09-26T21:33:40.499Z,7.17
2023-09-26T21:36:43.258Z,6.20
2023-09-26T21:39:45.650Z,6.12
2023-09-26T21:42:48.530Z,6.18
2023-09-26T21:45:52.280Z,6.50
2023-09-26T21:48:55.555Z,6.87
2023-09-26T21:51:58.332Z,6.12
2023-09-26T21:55:01.008Z,6.37
2023-09-26T21:58:03.885Z,6.45
2023-09-26T22:01:06.574Z,5.70
2023-09-26T22:04:09.433Z,6.20
2023-09-26T22:07:11.948Z,6.65
2023-09-26T22:10:15.275Z,5.20
2023-09-26T22:13:18.938Z,5.97
2023-09-26T22:16:22.350Z,6.10
2023-09-26T22:19:24.824Z,6.60
2023-09-26T22:22:27.612Z,6.70
2023-09-26T22:25:30.124Z,6.47
2023-09-26T22:28:32.926Z,6.82
2023-09-26T22:31:35.583Z,6.00
2023-09-26T22:34:39.042Z,6.37
2023-09-26T22:37:41.562Z,6.43
2023-09-26T22:40:50.885Z,6.53
2023-09-26T22:43:54.330Z,6.45
2023-09-26T22:46:57.334Z,7.07
2023-09-26T22:50:01.270Z,6.57
2023-09-26T22:53:04.745Z,7.65
2023-09-26T22:56:07.272Z,6.82
2023-09-26T22:59:10.138Z,6.57
2023-09-26T23:02:13.062Z,6.72
2023-09-26T23:05:16.306Z,6.57
2023-09-26T23:08:19.122Z,6.50
2023-09-26T23:11:21.907Z,6.28
2023-09-26T23:14:24.796Z,6.47
2023-09-26T23:17:27.992Z,6.62
2023-09-26T23:20:30.552Z,6.80
2023-09-26T23:23:33.401Z,6.75
2023-09-26T23:26:35.789Z,6.43
2023-09-26T23:29:39.912Z,6.80
2023-09-26T23:32:42.903Z,7.28
2023-09-26T23:35:46.093Z,6.03
2023-09-26T23:38:48.455Z,6.30
2023-09-26T23:41:52.499Z,6.50
2023-09-26T23:44:54.956Z,6.80
2023-09-26T23:47:57.855Z,6.53
2023-09-26T23:51:00.470Z,7.53
2023-09-26T23:54:03.615Z,6.95
2023-09-26T23:57:05.989Z,6.50
